createdAt,value
2018-01-16T00:01:57.718Z,11.93
2018-01-16T00:04:25.790Z,10.25
2018-01-16T00:06:53.847Z,11.60
2018-01-16T00:09:21.913Z,10.20
2018-01-16T00:11:49.970Z,11.25
2018-01-16T00:14:18.028Z,11.32
2018-01-16T00:16:46.093Z,12.30
2018-01-16T00:19:14.150Z,11.55
2018-01-16T00:21:42.214Z,12.40
2018-01-16T00:24:11.047Z,9.75
2018-01-16T00:26:39.916Z,13.45
2018-01-16T00:29:07.974Z,11.85
2018-01-16T00:31:36.030Z,9.60
2018-01-16T00:34:04.862Z,12.18
2018-01-16T00:36:32.918Z,10.68
2018-01-16T00:39:00.988Z,10.48
2018-01-16T00:41:29.041Z,12.25
2018-01-16T00:43:57.099Z,13.85
2018-01-16T00:46:25.925Z,14.23
2018-01-16T00:48:53.989Z,11.73
2018-01-16T00:51:22.049Z,11.85
2018-01-16T00:53:50.110Z,14.20
2018-01-16T00:56:18.165Z,10.50
2018-01-16T00:58:46.989Z,12.93
2018-01-16T01:01:15.054Z,12.63
2018-01-16T01:03:43.137Z,13.38
2018-01-16T01:06:11.202Z,10.30
2018-01-16T01:08:39.914Z,13.48
2018-01-16T01:11:07.980Z,14.30
2018-01-16T01:13:36.041Z,11.65
2018-01-16T01:16:04.100Z,15.93
2018-01-16T01:18:32.161Z,15.00
2018-01-16T01:21:01.161Z,13.45
2018-01-16T01:23:29.221Z,13.13
2018-01-16T01:25:57.285Z,12.25
2018-01-16T01:28:25.350Z,13.98
2018-01-16T01:30:53.414Z,14.95
2018-01-16T01:33:22.229Z,13.25
2018-01-16T01:35:50.298Z,12.63
2018-01-16T01:38:18.349Z,10.60
2018-01-16T01:40:46.413Z,13.48
2018-01-16T01:43:14.473Z,13.55
2018-01-16T01:45:43.321Z,13.15
2018-01-16T01:48:11.384Z,14.40
2018-01-16T01:50:39.454Z,12.07
2018-01-16T01:53:07.505Z,12.98
2018-01-16T01:55:35.606Z,11.32
2018-01-16T01:58:03.673Z,11.75
2018-01-16T02:00:31.738Z,10.75
2018-01-16T02:02:59.804Z,11.43
2018-01-16T02:05:27.870Z,11.25
2018-01-16T02:07:55.937Z,10.27
2018-01-16T02:10:23.997Z,11.77
2018-01-16T02:12:52.057Z,11.50
2018-01-16T02:15:20.122Z,12.40
2018-01-16T02:17:48.190Z,12.80
2018-01-16T02:20:16.250Z,10.68
2018-01-16T02:22:45.081Z,12.25
2018-01-16T02:25:13.139Z,11.25
2018-01-16T02:27:41.197Z,11.18
2018-01-16T02:30:09.262Z,12.85
2018-01-16T02:32:37.317Z,11.52
2018-01-16T02:35:06.144Z,11.48
2018-01-16T02:37:34.202Z,12.43
2018-01-16T02:40:02.266Z,12.50
2018-01-16T02:42:30.328Z,10.75
2018-01-16T02:44:59.351Z,10.70
2018-01-16T02:47:27.414Z,11.75
2018-01-16T02:49:55.486Z,11.60
2018-01-16T02:52:23.557Z,10.70
2018-01-16T02:54:51.613Z,11.60
2018-01-16T02:57:19.669Z,11.52
2018-01-16T02:59:47.729Z,11.30
2018-01-16T03:02:16.561Z,12.57
2018-01-16T03:04:44.617Z,12.73
2018-01-16T03:07:12.681Z,11.52
2018-01-16T03:09:40.734Z,11.25
2018-01-16T03:12:09.561Z,10.00
2018-01-16T03:14:37.618Z,13.20
2018-01-16T03:17:05.682Z,10.25
2018-01-16T03:19:33.737Z,9.23
2018-01-16T03:22:01.801Z,9.75
2018-01-16T03:24:30.628Z,8.73
2018-01-16T03:26:58.682Z,9.75
2018-01-16T03:29:26.736Z,10.80
2018-01-16T03:31:54.802Z,9.88
2018-01-16T03:34:23.623Z,10.40
2018-01-16T03:36:51.686Z,8.38
2018-01-16T03:39:19.741Z,9.52
2018-01-16T03:41:47.813Z,9.27
2018-01-16T03:44:15.865Z,8.45
2018-01-16T03:46:44.693Z,9.65
2018-01-16T03:49:12.753Z,8.25
2018-01-16T03:51:40.814Z,10.32
2018-01-16T03:54:08.879Z,10.25
2018-01-16T03:56:36.937Z,10.48
2018-01-16T03:59:05.765Z,9.07
2018-01-16T04:01:33.822Z,11.60
2018-01-16T04:04:01.892Z,9.07
2018-01-16T04:06:29.945Z,11.05
2018-01-16T04:08:58.129Z,11.23
2018-01-16T04:11:26.209Z,10.70
2018-01-16T04:13:54.278Z,12.75
2018-01-16T04:16:22.339Z,10.52
2018-01-16T04:18:50.397Z,12.13
2018-01-16T04:21:18.453Z,9.70
2018-01-16T04:23:47.294Z,11.32
2018-01-16T04:26:15.351Z,8.55
2018-01-16T04:28:43.423Z,10.25
2018-01-16T04:31:11.479Z,12.02
2018-01-16T04:33:39.541Z,11.32
2018-01-16T04:36:07.606Z,12.15
2018-01-16T04:38:35.667Z,11.40
2018-01-16T04:41:04.502Z,10.98
2018-01-16T04:43:32.566Z,10.35
2018-01-16T04:46:00.634Z,12.75
2018-01-16T04:48:28.695Z,10.75
2018-01-16T04:50:56.763Z,10.05
2018-01-16T04:53:24.817Z,11.25
2018-01-16T04:55:52.882Z,9.93
2018-01-16T04:58:21.719Z,12.70
2018-01-16T05:00:49.794Z,9.98
2018-01-16T05:03:17.850Z,11.95
2018-01-16T05:05:45.919Z,10.20
2018-01-16T05:08:13.977Z,11.30
2018-01-16T05:10:42.047Z,10.73
2018-01-16T05:13:10.122Z,10.18
2018-01-16T05:15:38.188Z,10.38
2018-01-16T05:18:06.245Z,10.52
2018-01-16T05:20:34.309Z,10.48
2018-01-16T05:23:02.373Z,11.23
2018-01-16T05:25:31.198Z,9.95
2018-01-16T05:27:59.261Z,11.12
2018-01-16T05:30:27.327Z,11.50
2018-01-16T05:32:55.398Z,11.10
2018-01-16T05:35:24.426Z,11.40
2018-01-16T05:37:52.493Z,10.02
2018-01-16T05:40:20.549Z,9.13
2018-01-16T05:42:48.612Z,9.55
2018-01-16T05:45:16.670Z,10.65
2018-01-16T05:47:44.746Z,10.07
2018-01-16T05:50:12.812Z,9.95
2018-01-16T05:52:40.883Z,7.35
2018-01-16T05:55:08.935Z,8.23
2018-01-16T05:57:36.985Z,8.13
2018-01-16T06:00:05.809Z,8.95
2018-01-16T06:02:33.862Z,9.30
2018-01-16T06:05:01.922Z,9.18
2018-01-16T06:07:30.750Z,8.75
2018-01-16T06:09:58.817Z,10.32
2018-01-16T06:12:26.882Z,7.53
2018-01-16T06:14:54.953Z,6.95
2018-01-16T06:17:23.150Z,8.30
2018-01-16T06:19:51.214Z,25.25
2018-01-16T06:22:19.281Z,9.10
2018-01-16T06:24:47.369Z,12.13
2018-01-16T06:27:15.426Z,9.63
2018-01-16T06:29:43.491Z,22.45
2018-01-16T06:32:11.553Z,8.50
2018-01-16T06:34:39.605Z,21.27
2018-01-16T06:37:07.675Z,14.82
2018-01-16T06:39:35.733Z,12.05
2018-01-16T06:42:04.561Z,10.32
2018-01-16T06:44:32.613Z,9.02
2018-01-16T06:47:00.682Z,23.30
2018-01-16T06:49:28.769Z,15.15
2018-01-16T06:51:56.837Z,19.42
2018-01-16T06:54:24.914Z,11.15
2018-01-16T06:56:52.985Z,7.53
2018-01-16T06:59:21.123Z,7.35
2018-01-16T07:01:49.966Z,11.30
2018-01-16T07:04:18.030Z,12.18
2018-01-16T07:06:46.094Z,7.35
2018-01-16T07:09:14.233Z,14.50
2018-01-16T07:11:42.281Z,8.80
2018-01-16T07:14:11.149Z,9.05
2018-01-16T07:16:39.212Z,10.95
2018-01-16T07:19:07.304Z,12.70
2018-01-16T07:21:35.372Z,20.70
2018-01-16T07:24:03.450Z,23.20
2018-01-16T07:26:32.280Z,10.05
2018-01-16T07:29:00.351Z,18.20
2018-01-16T07:31:28.440Z,11.07
2018-01-16T07:33:56.551Z,22.37
2018-01-16T07:36:24.613Z,11.60
2018-01-16T07:38:53.453Z,19.40
2018-01-16T07:41:21.519Z,24.45
2018-01-16T07:43:49.600Z,18.55
2018-01-16T07:46:17.659Z,8.80
2018-01-16T07:48:45.725Z,11.52
2018-01-16T07:51:13.784Z,10.43
2018-01-16T07:53:41.846Z,7.18
2018-01-16T07:56:09.899Z,8.63
2018-01-16T07:58:39.134Z,7.75
2018-01-16T08:01:07.256Z,7.18
2018-01-16T08:03:35.313Z,6.50
2018-01-16T08:06:03.389Z,7.82
2018-01-16T08:08:31.458Z,7.28
2018-01-16T08:10:59.514Z,6.32
2018-01-16T08:13:27.573Z,8.27
2018-01-16T08:15:55.633Z,7.57
2018-01-16T08:18:23.690Z,7.28
2018-01-16T08:20:51.813Z,7.50
2018-01-16T08:23:19.858Z,8.55
2018-01-16T08:25:47.912Z,8.10
2018-01-16T08:28:15.974Z,8.35
2018-01-16T08:30:44.026Z,8.82
2018-01-16T08:33:12.081Z,8.82
2018-01-16T08:35:40.909Z,8.02
2018-01-16T08:38:08.978Z,9.65
2018-01-16T08:40:37.062Z,8.20
2018-01-16T08:43:05.115Z,7.78
2018-01-16T08:45:33.174Z,9.13
2018-01-16T08:48:01.228Z,8.18
2018-01-16T08:50:30.059Z,7.60
2018-01-16T08:52:58.117Z,7.55
2018-01-16T08:55:26.186Z,7.72
2018-01-16T08:57:54.242Z,7.60
2018-01-16T09:00:22.366Z,6.93
2018-01-16T09:02:50.421Z,6.25
2018-01-16T09:05:18.494Z,6.85
2018-01-16T09:07:46.553Z,7.10
2018-01-16T09:10:14.623Z,7.20
2018-01-16T09:12:42.685Z,7.62
2018-01-16T09:15:10.750Z,6.25
2018-01-16T09:17:38.814Z,6.62
2018-01-16T09:20:06.885Z,6.30
2018-01-16T09:22:34.942Z,5.70
2018-01-16T09:25:03.002Z,5.75
2018-01-16T09:27:31.845Z,5.95
2018-01-16T09:29:59.923Z,4.70
2018-01-16T09:32:27.977Z,6.37
2018-01-16T09:34:56.037Z,5.50
2018-01-16T09:37:24.102Z,5.70
2018-01-16T09:39:52.172Z,6.93
2018-01-16T09:42:20.245Z,5.37
2018-01-16T09:44:48.313Z,5.57
2018-01-16T09:47:16.379Z,5.65
2018-01-16T09:49:44.443Z,5.22
2018-01-16T09:52:12.510Z,5.65
2018-01-16T09:54:40.565Z,6.00
2018-01-16T09:57:09.401Z,6.20
2018-01-16T09:59:37.470Z,5.87
2018-01-16T10:02:05.518Z,5.90
2018-01-16T10:04:33.593Z,5.45
2018-01-16T10:07:01.659Z,6.03
2018-01-16T10:09:29.715Z,6.40
2018-01-16T10:11:57.790Z,6.07
2018-01-16T10:14:25.853Z,5.85
2018-01-16T10:16:53.909Z,4.65
2018-01-16T10:19:22.742Z,4.60
2018-01-16T10:21:50.819Z,3.67
2018-01-16T10:24:18.883Z,3.40
2018-01-16T10:26:46.933Z,2.70
2018-01-16T10:29:14.997Z,2.83
2018-01-16T10:31:43.063Z,2.25
2018-01-16T10:34:11.134Z,2.65
2018-01-16T10:36:39.197Z,2.67
2018-01-16T10:39:08.017Z,2.40
2018-01-16T10:41:36.082Z,2.90
2018-01-16T10:44:04.142Z,2.00
2018-01-16T10:46:32.246Z,1.40
2018-01-16T10:49:00.308Z,3.35
2018-01-16T10:51:28.370Z,2.08
2018-01-16T10:53:56.432Z,2.40
2018-01-16T10:56:24.489Z,1.92
2018-01-16T10:58:52.610Z,2.17
2018-01-16T11:01:20.687Z,2.53
2018-01-16T11:03:48.750Z,2.00
2018-01-16T11:06:16.809Z,2.83
2018-01-16T11:08:44.869Z,2.05
2018-01-16T11:11:12.938Z,2.00
2018-01-16T11:13:41.002Z,2.17
2018-01-16T11:16:09.081Z,1.73
2018-01-16T11:18:37.149Z,1.60
2018-01-16T11:21:05.211Z,1.90
2018-01-16T11:23:33.283Z,1.85
2018-01-16T11:26:01.334Z,1.77
2018-01-16T11:28:30.358Z,1.90
2018-01-16T11:30:58.425Z,1.95
2018-01-16T11:33:26.618Z,2.00
2018-01-16T11:35:54.660Z,1.40
2018-01-16T11:38:22.727Z,1.90
2018-01-16T11:40:50.805Z,1.90
2018-01-16T11:43:18.865Z,2.20
2018-01-16T11:45:46.939Z,2.20
2018-01-16T11:48:15.002Z,2.70
2018-01-16T11:50:43.282Z,1.85
2018-01-16T11:53:11.558Z,1.77
2018-01-16T11:55:39.618Z,1.67
2018-01-16T11:58:07.683Z,1.60
2018-01-16T12:00:35.738Z,1.50
2018-01-16T12:03:04.574Z,2.00
2018-01-16T12:05:32.635Z,2.35
2018-01-16T12:08:00.699Z,1.60
2018-01-16T12:10:28.758Z,1.73
2018-01-16T12:12:56.826Z,1.87
2018-01-16T12:15:24.898Z,3.12
2018-01-16T12:17:52.969Z,4.37
2018-01-16T12:20:21.045Z,1.90
2018-01-16T12:22:49.325Z,2.20
2018-01-16T12:25:17.394Z,2.05
2018-01-16T12:27:45.454Z,1.92
2018-01-16T12:30:13.518Z,1.70
2018-01-16T12:32:41.579Z,2.25
2018-01-16T12:35:10.447Z,1.48
2018-01-16T12:37:38.550Z,1.67
2018-01-16T12:40:06.617Z,2.03
2018-01-16T12:42:34.689Z,1.87
2018-01-16T12:45:02.750Z,1.67
2018-01-16T12:47:30.805Z,2.10
2018-01-16T12:49:59.648Z,2.50
2018-01-16T12:52:27.702Z,1.93
2018-01-16T12:54:55.770Z,1.70
2018-01-16T12:57:23.830Z,2.63
2018-01-16T12:59:51.894Z,2.10
2018-01-16T13:02:20.714Z,1.80
2018-01-16T13:04:48.783Z,1.87
2018-01-16T13:07:16.854Z,1.70
2018-01-16T13:09:44.906Z,1.73
2018-01-16T13:12:13.019Z,2.20
2018-01-16T13:14:41.074Z,1.50
2018-01-16T13:17:09.137Z,1.60
2018-01-16T13:19:37.198Z,1.52
2018-01-16T13:22:05.265Z,1.20
2018-01-16T13:24:33.318Z,1.60
2018-01-16T13:27:01.381Z,1.60
2018-01-16T13:29:30.212Z,1.50
2018-01-16T13:31:58.285Z,1.60
2018-01-16T13:34:26.349Z,1.80
2018-01-16T13:36:54.430Z,1.75
2018-01-16T13:39:22.489Z,1.40
2018-01-16T13:41:50.546Z,1.65
2018-01-16T13:44:18.618Z,1.65
2018-01-16T13:46:46.690Z,2.22
2018-01-16T13:49:14.757Z,1.80
2018-01-16T13:51:42.829Z,2.37
2018-01-16T13:54:10.894Z,2.35
2018-01-16T13:56:38.962Z,1.80
2018-01-16T13:59:07.025Z,2.10
2018-01-16T14:01:35.087Z,2.30
2018-01-16T14:04:03.945Z,1.75
2018-01-16T14:06:32.007Z,2.08
2018-01-16T14:09:00.065Z,2.35
2018-01-16T14:11:28.124Z,2.40
2018-01-16T14:13:56.188Z,2.50
2018-01-16T14:16:24.245Z,2.53
2018-01-16T14:18:52.317Z,4.50
2018-01-16T14:21:20.390Z,3.00
2018-01-16T14:23:48.453Z,2.80
2018-01-16T14:26:16.518Z,2.20
2018-01-16T14:28:44.590Z,2.42
2018-01-16T14:31:13.421Z,2.55
2018-01-16T14:33:41.485Z,2.53
2018-01-16T14:36:09.548Z,2.17
2018-01-16T14:38:37.622Z,2.83
2018-01-16T14:41:05.695Z,2.37
2018-01-16T14:43:33.758Z,2.30
2018-01-16T14:46:01.826Z,3.33
2018-01-16T14:48:29.887Z,2.30
2018-01-16T14:50:57.952Z,2.92
2018-01-16T14:53:26.042Z,3.20
2018-01-16T14:55:54.109Z,3.33
2018-01-16T14:58:22.169Z,2.92
2018-01-16T15:00:50.310Z,2.12
2018-01-16T15:03:19.138Z,2.90
2018-01-16T15:05:47.211Z,3.28
2018-01-16T15:08:15.278Z,2.53
2018-01-16T15:10:43.341Z,3.05
2018-01-16T15:13:11.404Z,3.15
2018-01-16T15:15:39.482Z,3.03
2018-01-16T15:18:07.573Z,2.87
2018-01-16T15:20:35.601Z,3.17
2018-01-16T15:23:03.670Z,2.65
2018-01-16T15:25:32.504Z,2.72
2018-01-16T15:28:00.787Z,2.62
2018-01-16T15:30:28.869Z,2.80
2018-01-16T15:32:56.925Z,2.60
2018-01-16T15:35:24.997Z,3.10
2018-01-16T15:37:53.066Z,2.85
2018-01-16T15:40:21.118Z,3.62
2018-01-16T15:42:49.185Z,2.55
2018-01-16T15:45:17.242Z,2.78
2018-01-16T15:47:45.299Z,2.30
2018-01-16T15:50:13.353Z,2.40
2018-01-16T15:52:41.408Z,1.83
2018-01-16T15:55:09.465Z,1.95
2018-01-16T15:57:37.525Z,2.47
2018-01-16T16:00:05.582Z,2.40
2018-01-16T16:02:33.645Z,2.85
2018-01-16T16:05:02.271Z,1.95
2018-01-16T16:07:30.317Z,2.00
2018-01-16T16:09:58.389Z,2.15
2018-01-16T16:12:26.446Z,2.40
2018-01-16T16:14:54.535Z,2.37
2018-01-16T16:17:23.233Z,4.35
2018-01-16T16:19:51.304Z,3.45
2018-01-16T16:22:19.353Z,2.83
2018-01-16T16:24:47.417Z,3.40
2018-01-16T16:27:15.518Z,4.70
2018-01-16T16:29:43.589Z,5.37
2018-01-16T16:32:11.668Z,7.60
2018-01-16T16:34:39.735Z,6.07
2018-01-16T16:37:07.785Z,9.52
2018-01-16T16:39:35.882Z,7.05
2018-01-16T16:42:03.933Z,6.35
2018-01-16T16:44:32.066Z,5.95
2018-01-16T16:47:00.126Z,5.75
2018-01-16T16:49:28.194Z,4.20
2018-01-16T16:51:56.290Z,4.68
2018-01-16T16:54:24.358Z,4.25
2018-01-16T16:56:52.469Z,4.85
2018-01-16T16:59:20.525Z,4.40
2018-01-16T17:01:48.649Z,4.37
2018-01-16T17:04:16.721Z,4.90
2018-01-16T17:06:44.792Z,4.60
2018-01-16T17:09:12.841Z,4.12
2018-01-16T17:11:41.685Z,4.40
2018-01-16T17:14:09.735Z,4.18
2018-01-16T17:16:37.794Z,3.40
2018-01-16T17:19:05.859Z,3.12
2018-01-16T17:21:33.949Z,3.20
2018-01-16T17:24:02.002Z,2.90
2018-01-16T17:26:30.066Z,3.10
2018-01-16T17:28:58.134Z,3.47
2018-01-16T17:31:26.960Z,3.92
2018-01-16T17:33:56.270Z,3.33
2018-01-16T17:36:24.339Z,4.25
2018-01-16T17:38:52.390Z,3.80
2018-01-16T17:41:20.473Z,4.55
2018-01-16T17:43:48.530Z,5.00
2018-01-16T17:46:16.576Z,5.15
2018-01-16T17:48:44.701Z,5.50
2018-01-16T17:51:12.757Z,5.53
2018-01-16T17:53:40.818Z,8.80
2018-01-16T17:56:08.865Z,6.47
2018-01-16T17:58:36.929Z,5.65
2018-01-16T18:01:04.987Z,6.30
2018-01-16T18:03:33.818Z,6.65
2018-01-16T18:06:01.875Z,5.72
2018-01-16T18:08:29.947Z,6.20
2018-01-16T18:10:58.007Z,6.03
2018-01-16T18:13:26.069Z,6.10
2018-01-16T18:15:54.130Z,7.65
2018-01-16T18:18:22.958Z,5.30
2018-01-16T18:20:51.017Z,5.53
2018-01-16T18:23:19.065Z,6.20
2018-01-16T18:25:47.136Z,7.40
2018-01-16T18:28:15.970Z,6.35
2018-01-16T18:30:44.297Z,7.00
2018-01-16T18:33:12.405Z,5.72
2018-01-16T18:35:40.462Z,5.82
2018-01-16T18:38:08.513Z,6.22
2018-01-16T18:40:36.569Z,5.20
2018-01-16T18:43:05.394Z,5.20
2018-01-16T18:45:33.465Z,5.55
2018-01-16T18:48:01.519Z,5.97
2018-01-16T18:50:29.577Z,6.12
2018-01-16T18:52:58.412Z,5.37
2018-01-16T18:55:26.466Z,5.40
2018-01-16T18:57:54.521Z,6.43
2018-01-16T19:00:22.586Z,6.75
2018-01-16T19:02:50.636Z,5.25
2018-01-16T19:05:19.469Z,5.82
2018-01-16T19:07:47.521Z,6.12
2018-01-16T19:10:15.581Z,6.78
2018-01-16T19:12:43.630Z,6.40
2018-01-16T19:15:12.458Z,6.47
2018-01-16T19:17:40.511Z,6.00
2018-01-16T19:20:08.573Z,7.20
2018-01-16T19:22:37.398Z,6.10
2018-01-16T19:25:05.461Z,6.53
2018-01-16T19:27:33.510Z,6.12
2018-01-16T19:30:01.571Z,8.10
2018-01-16T19:32:30.397Z,8.25
2018-01-16T19:34:58.454Z,7.68
2018-01-16T19:37:26.517Z,7.78
2018-01-16T19:39:54.572Z,7.97
2018-01-16T19:42:22.639Z,7.62
2018-01-16T19:44:51.460Z,7.43
2018-01-16T19:47:19.517Z,7.18
2018-01-16T19:49:47.582Z,6.68
2018-01-16T19:52:15.671Z,6.25
2018-01-16T19:54:43.722Z,5.20
2018-01-16T19:57:11.779Z,5.90
2018-01-16T19:59:40.625Z,5.30
2018-01-16T20:02:08.686Z,5.80
2018-01-16T20:04:36.773Z,4.70
2018-01-16T20:07:04.876Z,4.87
2018-01-16T20:09:33.737Z,4.72
2018-01-16T20:12:01.801Z,5.47
2018-01-16T20:14:29.904Z,4.87
2018-01-16T20:16:58.736Z,3.78
2018-01-16T20:19:26.790Z,3.97
2018-01-16T20:21:54.849Z,4.53
2018-01-16T20:24:22.971Z,4.00
2018-01-16T20:26:51.039Z,3.95
2018-01-16T20:29:19.108Z,3.67
2018-01-16T20:31:47.178Z,4.15
2018-01-16T20:34:15.252Z,4.40
2018-01-16T20:36:43.312Z,3.97
2018-01-16T20:39:11.462Z,3.85
2018-01-16T20:41:39.517Z,3.85
2018-01-16T20:44:07.573Z,4.15
2018-01-16T20:46:36.399Z,4.05
2018-01-16T20:49:04.461Z,4.15
2018-01-16T20:51:32.522Z,4.12
2018-01-16T20:54:00.584Z,4.12
2018-01-16T20:56:28.645Z,4.40
2018-01-16T20:58:57.473Z,6.00
2018-01-16T21:01:25.534Z,5.03
2018-01-16T21:03:53.599Z,6.32
2018-01-16T21:06:21.689Z,4.65
2018-01-16T21:08:49.801Z,5.85
2018-01-16T21:11:18.188Z,4.87
2018-01-16T21:13:46.362Z,6.80
2018-01-16T21:16:15.192Z,4.80
2018-01-16T21:18:43.965Z,5.68
2018-01-16T21:21:12.061Z,6.05
2018-01-16T21:23:40.125Z,5.35
2018-01-16T21:26:08.177Z,5.28
2018-01-16T21:28:36.238Z,5.32
2018-01-16T21:31:04.296Z,5.50
2018-01-16T21:33:33.113Z,6.25
2018-01-16T21:36:01.183Z,5.43
2018-01-16T21:38:29.237Z,5.93
2018-01-16T21:40:57.293Z,6.07
2018-01-16T21:43:26.121Z,4.87
2018-01-16T21:45:54.194Z,6.90
2018-01-16T21:48:22.266Z,4.80
2018-01-16T21:50:50.336Z,5.00
2018-01-16T21:53:18.390Z,4.87
2018-01-16T21:55:46.512Z,6.10
2018-01-16T21:58:15.225Z,5.32
2018-01-16T22:00:44.097Z,5.80
2018-01-16T22:03:12.142Z,5.97
2018-01-16T22:05:40.292Z,4.97
2018-01-16T22:08:09.074Z,5.50
2018-01-16T22:10:37.134Z,5.50
2018-01-16T22:13:05.193Z,5.57
2018-01-16T22:15:33.247Z,5.03
2018-01-16T22:18:02.078Z,5.47
2018-01-16T22:20:30.137Z,5.65
2018-01-16T22:22:58.198Z,5.10
2018-01-16T22:25:26.257Z,5.90
2018-01-16T22:27:54.370Z,5.47
2018-01-16T22:30:22.417Z,4.97
2018-01-16T22:32:50.486Z,4.82
2018-01-16T22:35:18.546Z,5.72
2018-01-16T22:37:46.618Z,5.25
2018-01-16T22:40:14.682Z,5.32
2018-01-16T22:42:42.749Z,5.20
2018-01-16T22:45:10.822Z,5.20
2018-01-16T22:47:38.873Z,6.07
2018-01-16T22:50:07.707Z,6.90
2018-01-16T22:52:35.762Z,4.95
2018-01-16T22:55:03.837Z,4.82
2018-01-16T22:57:31.888Z,5.43
2018-01-16T22:59:59.949Z,5.80
2018-01-16T23:02:28.770Z,5.20
2018-01-16T23:04:56.861Z,5.12
2018-01-16T23:07:24.917Z,5.32
2018-01-16T23:09:52.990Z,4.78
2018-01-16T23:12:21.033Z,5.65
2018-01-16T23:14:49.099Z,5.47
2018-01-16T23:17:17.156Z,5.35
2018-01-16T23:19:45.980Z,5.35
2018-01-16T23:22:14.039Z,5.00
2018-01-16T23:24:42.103Z,5.53
2018-01-16T23:27:10.386Z,5.93
2018-01-16T23:29:38.437Z,5.82
2018-01-16T23:32:07.268Z,4.90
2018-01-16T23:34:35.326Z,5.60
2018-01-16T23:37:03.393Z,5.15
2018-01-16T23:39:31.444Z,5.62
2018-01-16T23:41:59.501Z,5.90
2018-01-16T23:44:28.325Z,5.28
2018-01-16T23:46:56.389Z,5.50
2018-01-16T23:49:24.446Z,5.37
2018-01-16T23:51:52.505Z,5.15
2018-01-16T23:54:21.551Z,5.00
2018-01-16T23:56:49.617Z,5.30
2018-01-16T23:59:17.673Z,9.05
